sensor_id;sensor_type;location;lat;lon;timestamp;P1;durP1;ratioP1;P2;durP2;ratioP2
23812;SDS011;12087;45.190;5.688;2024-01-25T00:02:54;10.50;;;7.40;;
23812;SDS011;12087;45.190;5.688;2024-01-25T00:08:16;13.70;;;7.78;;
23812;SDS011;12087;45.190;5.688;2024-01-25T00:13:39;13.23;;;8.35;;
23812;SDS011;12087;45.190;5.688;2024-01-25T00:19:02;13.38;;;8.45;;
23812;SDS011;12087;45.190;5.688;2024-01-25T00:24:25;12.95;;;8.00;;
23812;SDS011;12087;45.190;5.688;2024-01-25T00:29:48;11.70;;;7.50;;
23812;SDS011;12087;45.190;5.688;2024-01-25T00:35:13;12.10;;;7.82;;
23812;SDS011;12087;45.190;5.688;2024-01-25T00:40:36;14.23;;;8.45;;
23812;SDS011;12087;45.190;5.688;2024-01-25T00:45:59;15.13;;;8.43;;
23812;SDS011;12087;45.190;5.688;2024-01-25T00:51:23;10.40;;;7.93;;
23812;SDS011;12087;45.190;5.688;2024-01-25T00:56:46;11.45;;;7.43;;
23812;SDS011;12087;45.190;5.688;2024-01-25T01:02:11;13.52;;;9.23;;
23812;SDS011;12087;45.190;5.688;2024-01-25T01:07:36;10.70;;;7.10;;
23812;SDS011;12087;45.190;5.688;2024-01-25T01:12:59;11.38;;;7.07;;
23812;SDS011;12087;45.190;5.688;2024-01-25T01:18:22;13.68;;;7.60;;
23812;SDS011;12087;45.190;5.688;2024-01-25T01:23:45;10.38;;;6.78;;
23812;SDS011;12087;45.190;5.688;2024-01-25T01:29:08;11.40;;;6.22;;
23812;SDS011;12087;45.190;5.688;2024-01-25T01:34:30;10.27;;;7.00;;
23812;SDS011;12087;45.190;5.688;2024-01-25T01:39:54;10.88;;;6.78;;
23812;SDS011;12087;45.190;5.688;2024-01-25T01:45:16;10.48;;;6.65;;
23812;SDS011;12087;45.190;5.688;2024-01-25T01:50:40;14.20;;;6.35;;
23812;SDS011;12087;45.190;5.688;2024-01-25T01:56:04;10.77;;;6.72;;
23812;SDS011;12087;45.190;5.688;2024-01-25T02:01:28;12.57;;;6.85;;
23812;SDS011;12087;45.190;5.688;2024-01-25T02:06:51;11.75;;;6.88;;
23812;SDS011;12087;45.190;5.688;2024-01-25T02:12:16;10.63;;;7.10;;
23812;SDS011;12087;45.190;5.688;2024-01-25T02:17:38;11.10;;;6.15;;
23812;SDS011;12087;45.190;5.688;2024-01-25T02:23:02;10.32;;;5.65;;
23812;SDS011;12087;45.190;5.688;2024-01-25T02:28:25;10.55;;;6.45;;
23812;SDS011;12087;45.190;5.688;2024-01-25T02:33:48;13.30;;;7.00;;
23812;SDS011;12087;45.190;5.688;2024-01-25T02:39:11;13.25;;;7.15;;
23812;SDS011;12087;45.190;5.688;2024-01-25T02:44:33;11.18;;;6.75;;
23812;SDS011;12087;45.190;5.688;2024-01-25T02:49:56;12.10;;;6.50;;
23812;SDS011;12087;45.190;5.688;2024-01-25T02:55:19;13.43;;;6.95;;
23812;SDS011;12087;45.190;5.688;2024-01-25T03:00:42;11.55;;;6.22;;
23812;SDS011;12087;45.190;5.688;2024-01-25T03:06:05;11.95;;;7.32;;
23812;SDS011;12087;45.190;5.688;2024-01-25T03:11:30;10.50;;;6.57;;
23812;SDS011;12087;45.190;5.688;2024-01-25T03:16:52;9.15;;;6.25;;
23812;SDS011;12087;45.190;5.688;2024-01-25T03:22:15;14.57;;;7.40;;
23812;SDS011;12087;45.190;5.688;2024-01-25T03:27:38;12.85;;;7.60;;
23812;SDS011;12087;45.190;5.688;2024-01-25T03:33:01;11.38;;;7.13;;
23812;SDS011;12087;45.190;5.688;2024-01-25T03:38:23;13.80;;;8.02;;
23812;SDS011;12087;45.190;5.688;2024-01-25T03:43:47;13.25;;;8.20;;
23812;SDS011;12087;45.190;5.688;2024-01-25T03:49:09;14.20;;;8.88;;
23812;SDS011;12087;45.190;5.688;2024-01-25T03:54:32;12.32;;;8.32;;
23812;SDS011;12087;45.190;5.688;2024-01-25T03:59:56;13.80;;;8.13;;
23812;SDS011;12087;45.190;5.688;2024-01-25T04:05:18;11.57;;;7.70;;
23812;SDS011;12087;45.190;5.688;2024-01-25T04:10:40;15.13;;;9.02;;
23812;SDS011;12087;45.190;5.688;2024-01-25T04:16:04;20.27;;;9.27;;
23812;SDS011;12087;45.190;5.688;2024-01-25T04:21:27;14.35;;;9.27;;
23812;SDS011;12087;45.190;5.688;2024-01-25T04:26:49;13.55;;;9.00;;
23812;SDS011;12087;45.190;5.688;2024-01-25T04:32:14;12.57;;;8.68;;
23812;SDS011;12087;45.190;5.688;2024-01-25T04:37:36;16.42;;;9.10;;
23812;SDS011;12087;45.190;5.688;2024-01-25T04:42:58;11.32;;;8.30;;
23812;SDS011;12087;45.190;5.688;2024-01-25T04:48:22;14.40;;;9.00;;
23812;SDS011;12087;45.190;5.688;2024-01-25T04:53:44;11.90;;;8.35;;
23812;SDS011;12087;45.190;5.688;2024-01-25T04:59:06;15.45;;;8.82;;
23812;SDS011;12087;45.190;5.688;2024-01-25T05:04:30;14.05;;;8.73;;
23812;SDS011;12087;45.190;5.688;2024-01-25T05:09:52;15.52;;;8.82;;
23812;SDS011;12087;45.190;5.688;2024-01-25T05:15:14;13.90;;;7.95;;
23812;SDS011;12087;45.190;5.688;2024-01-25T05:20:38;17.75;;;7.95;;
23812;SDS011;12087;45.190;5.688;2024-01-25T05:26:00;17.02;;;7.75;;
23812;SDS011;12087;45.190;5.688;2024-01-25T05:31:23;12.38;;;7.78;;
23812;SDS011;12087;45.190;5.688;2024-01-25T05:36:46;11.52;;;7.53;;
23812;SDS011;12087;45.190;5.688;2024-01-25T05:42:09;13.35;;;7.90;;
23812;SDS011;12087;45.190;5.688;2024-01-25T05:47:32;10.65;;;8.00;;
23812;SDS011;12087;45.190;5.688;2024-01-25T05:52:57;14.05;;;8.13;;
23812;SDS011;12087;45.190;5.688;2024-01-25T05:58:19;12.70;;;8.20;;
23812;SDS011;12087;45.190;5.688;2024-01-25T06:03:41;15.68;;;8.55;;
23812;SDS011;12087;45.190;5.688;2024-01-25T06:09:05;16.23;;;8.82;;
23812;SDS011;12087;45.190;5.688;2024-01-25T06:14:27;38.53;;;28.60;;
23812;SDS011;12087;45.190;5.688;2024-01-25T06:19:49;28.17;;;20.33;;
23812;SDS011;12087;45.190;5.688;2024-01-25T06:25:13;22.73;;;19.45;;
23812;SDS011;12087;45.190;5.688;2024-01-25T06:30:35;23.52;;;16.95;;
23812;SDS011;12087;45.190;5.688;2024-01-25T06:35:59;16.90;;;12.10;;
23812;SDS011;12087;45.190;5.688;2024-01-25T06:41:27;20.83;;;12.65;;
23812;SDS011;12087;45.190;5.688;2024-01-25T06:46:49;18.60;;;12.20;;
23812;SDS011;12087;45.190;5.688;2024-01-25T06:52:11;21.75;;;11.70;;
23812;SDS011;12087;45.190;5.688;2024-01-25T06:57:34;31.17;;;20.75;;
23812;SDS011;12087;45.190;5.688;2024-01-25T07:02:58;58.45;;;34.80;;
23812;SDS011;12087;45.190;5.688;2024-01-25T07:08:20;37.88;;;25.00;;
23812;SDS011;12087;45.190;5.688;2024-01-25T07:13:45;45.00;;;25.88;;
23812;SDS011;12087;45.190;5.688;2024-01-25T07:19:07;28.63;;;18.23;;
23812;SDS011;12087;45.190;5.688;2024-01-25T07:24:30;56.75;;;35.15;;
23812;SDS011;12087;45.190;5.688;2024-01-25T07:29:54;26.80;;;16.48;;
23812;SDS011;12087;45.190;5.688;2024-01-25T07:35:16;44.03;;;27.02;;
23812;SDS011;12087;45.190;5.688;2024-01-25T07:40:38;28.55;;;20.75;;
23812;SDS011;12087;45.190;5.688;2024-01-25T07:46:02;29.48;;;21.10;;
23812;SDS011;12087;45.190;5.688;2024-01-25T07:51:25;22.95;;;16.63;;
23812;SDS011;12087;45.190;5.688;2024-01-25T07:56:48;25.10;;;15.43;;
23812;SDS011;12087;45.190;5.688;2024-01-25T08:02:12;44.33;;;31.25;;
23812;SDS011;12087;45.190;5.688;2024-01-25T08:07:35;34.30;;;19.98;;
23812;SDS011;12087;45.190;5.688;2024-01-25T08:12:58;47.00;;;31.65;;
23812;SDS011;12087;45.190;5.688;2024-01-25T08:18:21;35.50;;;21.38;;
23812;SDS011;12087;45.190;5.688;2024-01-25T08:23:44;24.08;;;13.95;;
23812;SDS011;12087;45.190;5.688;2024-01-25T08:29:06;133.43;;;63.55;;
23812;SDS011;12087;45.190;5.688;2024-01-25T08:34:29;76.40;;;35.55;;
23812;SDS011;12087;45.190;5.688;2024-01-25T08:39:52;38.90;;;21.60;;
23812;SDS011;12087;45.190;5.688;2024-01-25T08:45:14;28.73;;;15.32;;
23812;SDS011;12087;45.190;5.688;2024-01-25T08:50:38;24.95;;;14.57;;
23812;SDS011;12087;45.190;5.688;2024-01-25T08:56:00;21.10;;;12.65;;
23812;SDS011;12087;45.190;5.688;2024-01-25T09:01:22;22.58;;;12.05;;
23812;SDS011;12087;45.190;5.688;2024-01-25T09:06:46;23.02;;;13.05;;
23812;SDS011;12087;45.190;5.688;2024-01-25T09:12:08;40.30;;;19.15;;
23812;SDS011;12087;45.190;5.688;2024-01-25T09:17:31;31.60;;;14.98;;
23812;SDS011;12087;45.190;5.688;2024-01-25T09:22:55;45.38;;;22.08;;
23812;SDS011;12087;45.190;5.688;2024-01-25T09:28:17;35.85;;;20.75;;
23812;SDS011;12087;45.190;5.688;2024-01-25T09:33:39;28.85;;;17.50;;
23812;SDS011;12087;45.190;5.688;2024-01-25T09:39:03;17.40;;;9.95;;
23812;SDS011;12087;45.190;5.688;2024-01-25T09:44:25;17.83;;;10.60;;
23812;SDS011;12087;45.190;5.688;2024-01-25T09:49:47;18.38;;;11.07;;
23812;SDS011;12087;45.190;5.688;2024-01-25T09:55:11;15.10;;;10.25;;
23812;SDS011;12087;45.190;5.688;2024-01-25T10:00:35;20.88;;;9.90;;
23812;SDS011;12087;45.190;5.688;2024-01-25T10:05:59;16.08;;;10.50;;
23812;SDS011;12087;45.190;5.688;2024-01-25T10:11:23;16.05;;;10.23;;
23812;SDS011;12087;45.190;5.688;2024-01-25T10:16:46;37.55;;;25.92;;
23812;SDS011;12087;45.190;5.688;2024-01-25T10:22:08;20.90;;;11.48;;
23812;SDS011;12087;45.190;5.688;2024-01-25T10:27:33;16.10;;;9.50;;
23812;SDS011;12087;45.190;5.688;2024-01-25T10:32:56;55.75;;;39.50;;
23812;SDS011;12087;45.190;5.688;2024-01-25T10:38:20;25.90;;;19.88;;
23812;SDS011;12087;45.190;5.688;2024-01-25T10:43:44;43.05;;;16.60;;
23812;SDS011;12087;45.190;5.688;2024-01-25T10:49:06;11.27;;;6.93;;
23812;SDS011;12087;45.190;5.688;2024-01-25T10:54:29;7.93;;;5.53;;
23812;SDS011;12087;45.190;5.688;2024-01-25T10:59:53;8.30;;;6.30;;
23812;SDS011;12087;45.190;5.688;2024-01-25T11:05:16;8.75;;;5.18;;
23812;SDS011;12087;45.190;5.688;2024-01-25T11:10:39;9.82;;;5.25;;
23812;SDS011;12087;45.190;5.688;2024-01-25T11:16:12;8.27;;;4.60;;
23812;SDS011;12087;45.190;5.688;2024-01-25T11:21:39;15.32;;;5.45;;
23812;SDS011;12087;45.190;5.688;2024-01-25T11:27:03;7.32;;;4.40;;
23812;SDS011;12087;45.190;5.688;2024-01-25T11:32:27;8.38;;;5.30;;
23812;SDS011;12087;45.190;5.688;2024-01-25T11:37:50;7.45;;;5.38;;
23812;SDS011;12087;45.190;5.688;2024-01-25T11:43:12;9.93;;;5.32;;
23812;SDS011;12087;45.190;5.688;2024-01-25T11:48:39;8.40;;;5.10;;
23812;SDS011;12087;45.190;5.688;2024-01-25T11:54:02;8.57;;;4.50;;
23812;SDS011;12087;45.190;5.688;2024-01-25T11:59:27;8.38;;;3.95;;
23812;SDS011;12087;45.190;5.688;2024-01-25T12:04:50;8.27;;;4.10;;
23812;SDS011;12087;45.190;5.688;2024-01-25T12:10:16;6.50;;;4.03;;
23812;SDS011;12087;45.190;5.688;2024-01-25T12:15:38;7.93;;;4.00;;
23812;SDS011;12087;45.190;5.688;2024-01-25T12:21:04;4.72;;;3.50;;
23812;SDS011;12087;45.190;5.688;2024-01-25T12:26:27;9.77;;;5.13;;
23812;SDS011;12087;45.190;5.688;2024-01-25T12:31:49;11.25;;;4.13;;
23812;SDS011;12087;45.190;5.688;2024-01-25T12:37:12;10.93;;;5.63;;
23812;SDS011;12087;45.190;5.688;2024-01-25T12:42:35;10.32;;;4.68;;
23812;SDS011;12087;45.190;5.688;2024-01-25T12:47:57;9.82;;;4.28;;
23812;SDS011;12087;45.190;5.688;2024-01-25T12:53:20;11.85;;;5.43;;
23812;SDS011;12087;45.190;5.688;2024-01-25T12:58:43;15.88;;;4.95;;
23812;SDS011;12087;45.190;5.688;2024-01-25T13:04:05;5.65;;;2.70;;
23812;SDS011;12087;45.190;5.688;2024-01-25T13:09:28;6.55;;;3.17;;
23812;SDS011;12087;45.190;5.688;2024-01-25T13:14:53;7.22;;;3.35;;
23812;SDS011;12087;45.190;5.688;2024-01-25T13:20:15;5.70;;;3.13;;
23812;SDS011;12087;45.190;5.688;2024-01-25T13:25:39;7.63;;;3.03;;
23812;SDS011;12087;45.190;5.688;2024-01-25T13:31:01;4.22;;;2.45;;
23812;SDS011;12087;45.190;5.688;2024-01-25T13:36:23;5.22;;;2.70;;
23812;SDS011;12087;45.190;5.688;2024-01-25T13:41:47;8.90;;;3.30;;
23812;SDS011;12087;45.190;5.688;2024-01-25T13:47:10;7.50;;;2.33;;
23812;SDS011;12087;45.190;5.688;2024-01-25T13:52:32;4.25;;;1.95;;
23812;SDS011;12087;45.190;5.688;2024-01-25T13:57:56;3.67;;;2.05;;
23812;SDS011;12087;45.190;5.688;2024-01-25T14:03:18;3.90;;;1.88;;
23812;SDS011;12087;45.190;5.688;2024-01-25T14:08:40;5.68;;;2.10;;
23812;SDS011;12087;45.190;5.688;2024-01-25T14:14:04;6.45;;;2.38;;
23812;SDS011;12087;45.190;5.688;2024-01-25T14:19:26;6.13;;;2.75;;
23812;SDS011;12087;45.190;5.688;2024-01-25T14:24:48;4.50;;;2.55;;
23812;SDS011;12087;45.190;5.688;2024-01-25T14:30:12;8.00;;;3.40;;
23812;SDS011;12087;45.190;5.688;2024-01-25T14:35:34;12.30;;;3.42;;
23812;SDS011;12087;45.190;5.688;2024-01-25T14:40:57;10.05;;;3.30;;
23812;SDS011;12087;45.190;5.688;2024-01-25T14:46:20;9.70;;;2.78;;
23812;SDS011;12087;45.190;5.688;2024-01-25T14:51:42;7.43;;;2.15;;
23812;SDS011;12087;45.190;5.688;2024-01-25T14:57:04;4.68;;;2.08;;
23812;SDS011;12087;45.190;5.688;2024-01-25T15:02:28;7.97;;;2.80;;
23812;SDS011;12087;45.190;5.688;2024-01-25T15:07:51;6.47;;;2.10;;
23812;SDS011;12087;45.190;5.688;2024-01-25T15:13:13;1.95;;;1.58;;
23812;SDS011;12087;45.190;5.688;2024-01-25T15:18:37;5.93;;;1.83;;
23812;SDS011;12087;45.190;5.688;2024-01-25T15:23:59;5.70;;;1.52;;
23812;SDS011;12087;45.190;5.688;2024-01-25T15:29:21;2.15;;;1.27;;
23812;SDS011;12087;45.190;5.688;2024-01-25T15:34:45;3.60;;;1.60;;
23812;SDS011;12087;45.190;5.688;2024-01-25T15:40:08;2.85;;;1.38;;
23812;SDS011;12087;45.190;5.688;2024-01-25T15:45:32;23.13;;;10.95;;
23812;SDS011;12087;45.190;5.688;2024-01-25T15:50:56;10.85;;;5.10;;
23812;SDS011;12087;45.190;5.688;2024-01-25T15:56:18;5.47;;;4.05;;
23812;SDS011;12087;45.190;5.688;2024-01-25T16:01:40;5.13;;;3.55;;
23812;SDS011;12087;45.190;5.688;2024-01-25T16:07:05;10.68;;;2.78;;
23812;SDS011;12087;45.190;5.688;2024-01-25T16:12:27;7.90;;;3.10;;
23812;SDS011;12087;45.190;5.688;2024-01-25T16:17:49;9.25;;;3.88;;
23812;SDS011;12087;45.190;5.688;2024-01-25T16:23:13;4.43;;;2.63;;
23812;SDS011;12087;45.190;5.688;2024-01-25T16:28:35;8.05;;;4.78;;
23812;SDS011;12087;45.190;5.688;2024-01-25T16:33:57;14.18;;;8.98;;
23812;SDS011;12087;45.190;5.688;2024-01-25T16:39:21;29.83;;;19.90;;
23812;SDS011;12087;45.190;5.688;2024-01-25T16:44:43;67.53;;;41.65;;
23812;SDS011;12087;45.190;5.688;2024-01-25T16:50:06;22.48;;;13.77;;
23812;SDS011;12087;45.190;5.688;2024-01-25T16:55:31;31.20;;;19.17;;
23812;SDS011;12087;45.190;5.688;2024-01-25T17:00:53;26.38;;;15.23;;
23812;SDS011;12087;45.190;5.688;2024-01-25T17:06:15;19.95;;;12.25;;
23812;SDS011;12087;45.190;5.688;2024-01-25T17:11:40;17.85;;;9.88;;
23812;SDS011;12087;45.190;5.688;2024-01-25T17:17:03;17.38;;;9.55;;
23812;SDS011;12087;45.190;5.688;2024-01-25T17:22:26;13.75;;;6.18;;
23812;SDS011;12087;45.190;5.688;2024-01-25T17:27:50;16.58;;;7.13;;
23812;SDS011;12087;45.190;5.688;2024-01-25T17:33:12;17.70;;;9.50;;
23812;SDS011;12087;45.190;5.688;2024-01-25T17:38:34;20.23;;;9.57;;
23812;SDS011;12087;45.190;5.688;2024-01-25T17:43:58;13.63;;;8.38;;
23812;SDS011;12087;45.190;5.688;2024-01-25T17:49:21;15.82;;;7.43;;
23812;SDS011;12087;45.190;5.688;2024-01-25T17:54:43;14.43;;;6.80;;
23812;SDS011;12087;45.190;5.688;2024-01-25T18:00:07;16.63;;;7.28;;
23812;SDS011;12087;45.190;5.688;2024-01-25T18:05:30;9.23;;;6.00;;
23812;SDS011;12087;45.190;5.688;2024-01-25T18:10:52;11.40;;;5.85;;
23812;SDS011;12087;45.190;5.688;2024-01-25T18:16:17;14.20;;;6.80;;
23812;SDS011;12087;45.190;5.688;2024-01-25T18:21:40;8.60;;;4.63;;
23812;SDS011;12087;45.190;5.688;2024-01-25T18:27:04;8.13;;;4.10;;
23812;SDS011;12087;45.190;5.688;2024-01-25T18:32:27;8.68;;;4.93;;
23812;SDS011;12087;45.190;5.688;2024-01-25T18:37:49;16.13;;;5.63;;
23812;SDS011;12087;45.190;5.688;2024-01-25T18:43:12;15.70;;;6.88;;
23812;SDS011;12087;45.190;5.688;2024-01-25T18:48:36;15.60;;;8.73;;
23812;SDS011;12087;45.190;5.688;2024-01-25T18:53:59;21.67;;;11.60;;
23812;SDS011;12087;45.190;5.688;2024-01-25T18:59:22;11.40;;;6.95;;
23812;SDS011;12087;45.190;5.688;2024-01-25T19:04:46;12.60;;;6.85;;
23812;SDS011;12087;45.190;5.688;2024-01-25T19:10:09;8.25;;;5.63;;
23812;SDS011;12087;45.190;5.688;2024-01-25T19:15:31;11.13;;;6.57;;
23812;SDS011;12087;45.190;5.688;2024-01-25T19:20:55;9.00;;;4.97;;
23812;SDS011;12087;45.190;5.688;2024-01-25T19:26:17;8.50;;;6.13;;
23812;SDS011;12087;45.190;5.688;2024-01-25T19:31:40;16.95;;;6.50;;
23812;SDS011;12087;45.190;5.688;2024-01-25T19:37:05;11.90;;;6.40;;
23812;SDS011;12087;45.190;5.688;2024-01-25T19:42:27;17.50;;;6.68;;
23812;SDS011;12087;45.190;5.688;2024-01-25T19:47:49;11.77;;;6.32;;
23812;SDS011;12087;45.190;5.688;2024-01-25T19:53:13;13.45;;;6.32;;
23812;SDS011;12087;45.190;5.688;2024-01-25T19:58:35;12.70;;;7.95;;
23812;SDS011;12087;45.190;5.688;2024-01-25T20:03:58;11.15;;;6.63;;
23812;SDS011;12087;45.190;5.688;2024-01-25T20:09:23;15.32;;;8.63;;
23812;SDS011;12087;45.190;5.688;2024-01-25T20:14:45;13.07;;;8.23;;
23812;SDS011;12087;45.190;5.688;2024-01-25T20:20:09;11.38;;;7.32;;
23812;SDS011;12087;45.190;5.688;2024-01-25T20:25:34;12.75;;;7.78;;
23812;SDS011;12087;45.190;5.688;2024-01-25T20:30:56;15.20;;;8.32;;
23812;SDS011;12087;45.190;5.688;2024-01-25T20:36:18;14.70;;;9.13;;
23812;SDS011;12087;45.190;5.688;2024-01-25T20:41:42;16.02;;;9.02;;
23812;SDS011;12087;45.190;5.688;2024-01-25T20:47:04;19.33;;;8.75;;
23812;SDS011;12087;45.190;5.688;2024-01-25T20:52:26;13.45;;;8.40;;
23812;SDS011;12087;45.190;5.688;2024-01-25T20:57:50;11.93;;;7.65;;
23812;SDS011;12087;45.190;5.688;2024-01-25T21:03:13;12.75;;;7.32;;
23812;SDS011;12087;45.190;5.688;2024-01-25T21:08:35;12.90;;;7.80;;
23812;SDS011;12087;45.190;5.688;2024-01-25T21:14:00;21.00;;;13.57;;
23812;SDS011;12087;45.190;5.688;2024-01-25T21:19:22;15.10;;;9.15;;
23812;SDS011;12087;45.190;5.688;2024-01-25T21:24:44;19.65;;;9.20;;
23812;SDS011;12087;45.190;5.688;2024-01-25T21:30:09;25.60;;;14.35;;
23812;SDS011;12087;45.190;5.688;2024-01-25T21:35:32;25.23;;;16.23;;
23812;SDS011;12087;45.190;5.688;2024-01-25T21:40:55;28.45;;;16.80;;
23812;SDS011;12087;45.190;5.688;2024-01-25T21:46:19;27.30;;;15.95;;
23812;SDS011;12087;45.190;5.688;2024-01-25T21:51:42;26.05;;;15.68;;
23812;SDS011;12087;45.190;5.688;2024-01-25T21:57:04;33.38;;;18.80;;
23812;SDS011;12087;45.190;5.688;2024-01-25T22:02:28;31.45;;;17.48;;
23812;SDS011;12087;45.190;5.688;2024-01-25T22:07:50;34.50;;;17.17;;
23812;SDS011;12087;45.190;5.688;2024-01-25T22:13:13;27.88;;;14.60;;
23812;SDS011;12087;45.190;5.688;2024-01-25T22:18:37;57.00;;;26.20;;
23812;SDS011;12087;45.190;5.688;2024-01-25T22:23:59;27.40;;;15.40;;
23812;SDS011;12087;45.190;5.688;2024-01-25T22:29:22;18.52;;;10.63;;
23812;SDS011;12087;45.190;5.688;2024-01-25T22:34:45;16.48;;;9.70;;
23812;SDS011;12087;45.190;5.688;2024-01-25T22:40:08;14.65;;;9.13;;
23812;SDS011;12087;45.190;5.688;2024-01-25T22:45:31;12.15;;;8.95;;
23812;SDS011;12087;45.190;5.688;2024-01-25T22:50:55;15.20;;;9.10;;
23812;SDS011;12087;45.190;5.688;2024-01-25T22:56:22;12.93;;;7.90;;
23812;SDS011;12087;45.190;5.688;2024-01-25T23:01:45;12.20;;;8.68;;
23812;SDS011;12087;45.190;5.688;2024-01-25T23:07:09;12.57;;;8.95;;
23812;SDS011;12087;45.190;5.688;2024-01-25T23:12:31;14.63;;;9.85;;
23812;SDS011;12087;45.190;5.688;2024-01-25T23:17:53;11.90;;;8.10;;
23812;SDS011;12087;45.190;5.688;2024-01-25T23:23:17;15.45;;;8.75;;
23812;SDS011;12087;45.190;5.688;2024-01-25T23:28:39;12.63;;;6.95;;
23812;SDS011;12087;45.190;5.688;2024-01-25T23:34:01;13.80;;;7.55;;
23812;SDS011;12087;45.190;5.688;2024-01-25T23:39:25;11.15;;;6.93;;
23812;SDS011;12087;45.190;5.688;2024-01-25T23:44:48;10.18;;;6.65;;
23812;SDS011;12087;45.190;5.688;2024-01-25T23:50:10;10.68;;;7.00;;
23812;SDS011;12087;45.190;5.688;2024-01-25T23:55:33;8.63;;;6.22;;
